KEPH

Details ICAO KEPH
Name EPHRATA MUNI
Region United States
Timezone America/Los_Angeles (UTC-7.0)
Plans Departing 11
Arriving 15
Stats Elevation 1,275 ft / 389 m (AMSL)
Location 47.306624° -119.514625°
Runways 3
Magnetic Variation 14.991° E
Sunrise 2018-05-24 12:13:13 UTC / 2018-05-24 05:13:13 Local
Sunset 2018-05-25 03:39:30 UTC / 2018-05-24 20:39:30 Local
Advertisement - Login to hide

Runways

ID Width Length Bearing (true) Bearing (mag) Surface Threshold Offset Overrun Length
02 150 ft / 46 m 6,693 ft / 2,040 m 42.61° 27.62° Asphalt 0 ft / 0 m 0 ft / 0 m
11 60 ft / 18 m 3,837 ft / 1,170 m 127.79° 112.80° Concrete 0 ft / 0 m 0 ft / 0 m
16 150 ft / 46 m 6,589 ft / 2,008 m 180.60° 165.61° Asphalt 0 ft / 0 m 0 ft / 0 m
20 150 ft / 46 m 6,693 ft / 2,040 m 222.63° 207.64° Asphalt 0 ft / 0 m 0 ft / 0 m
29 60 ft / 18 m 3,837 ft / 1,170 m 307.80° 292.81° Concrete 0 ft / 0 m 0 ft / 0 m
34 150 ft / 46 m 6,589 ft / 2,008 m 0.60° 345.61° Asphalt 0 ft / 0 m 0 ft / 0 m

Map

Weather


0- 5 10 15 20 25 30 35+ Temperature / ° C

Clouds and Precipitation
Forecast for 2018-05-24 18:00 UTC. Updated 3 hours ago

Ground ~20,000 ft ~40,000 ft Winds

METAR

KEPH 241953Z AUTO 16006KT 10SM CLR 28/09 A2990 RMK AO2 SLP116 T02830094 $

TAF

Not found

Frequencies

Recorded 135.77 MHz ASOS
Approach 126.40 MHz GRANT CO APP/DEP
Unicom 122.80 MHz CTAF/UNICOM
Warning: Do not use this data for real-world aviation or navigation. No guarantee of current accuracy is given.